Time;durP1;ratioP1;P1;durP2;ratioP2;P2;SDS_P1;SDS_P2;PMS_P1;PMS_P2;Temp;Humidity;BMP_temperature;BMP_pressure;BME280_temperature;BME280_humidity;BME280_pressure;Samples;Min_cycle;Max_cycle;Signal;HPM_P1;HPM_P2
2021/08/23 00:00:02;;;;;;;4.77;4.37;;;15.30;99.90;;;;;;5084937;28;20636;-81
2021/08/23 00:02:30;;;;;;;7.30;5.40;;;15.30;99.90;;;;;;5070156;28;20625;-81
2021/08/23 00:04:58;;;;;;;4.63;4.23;;;15.30;99.90;;;;;;5071552;28;20629;-81
2021/08/23 00:07:25;;;;;;;5.07;4.57;;;15.20;99.90;;;;;;5089518;28;20652;-81
2021/08/23 00:09:52;;;;;;;6.20;5.47;;;15.20;99.90;;;;;;5089877;28;20608;-81
2021/08/23 00:12:19;;;;;;;5.30;4.70;;;15.20;99.90;;;;;;5085666;28;21220;-81
2021/08/23 00:14:46;;;;;;;5.23;4.70;;;15.10;99.90;;;;;;5082334;28;20617;-81
2021/08/23 00:17:13;;;;;;;5.60;4.50;;;15.10;99.90;;;;;;5090643;28;20600;-81
2021/08/23 00:19:41;;;;;;;5.10;4.70;;;15.10;99.90;;;;;;5071390;28;20628;-81
2021/08/23 00:22:20;;;;;;;5.33;4.93;;;15.10;99.90;;;;;;5073076;28;20690;-81
2021/08/23 00:24:48;;;;;;;6.57;3.70;;;15.10;99.90;;;;;;5073790;28;20616;-81
2021/08/23 00:27:15;;;;;;;4.43;4.03;;;15.10;99.90;;;;;;5081541;28;21185;-80
2021/08/23 00:29:42;;;;;;;6.73;4.40;;;15.10;99.90;;;;;;5087605;28;20641;-80
2021/08/23 00:32:10;;;;;;;5.47;4.97;;;15.00;99.90;;;;;;5074983;28;20661;-81
2021/08/23 00:34:37;;;;;;;6.33;5.83;;;15.00;99.90;;;;;;5069836;28;20614;-81
2021/08/23 00:37:06;;;;;;;7.80;7.20;;;15.00;99.90;;;;;;5085116;28;21189;-80
2021/08/23 00:39:33;;;;;;;6.50;5.93;;;15.00;99.90;;;;;;5081768;28;20610;-80
2021/08/23 00:42:01;;;;;;;8.80;4.83;;;15.10;99.90;;;;;;5076717;28;20612;-81
2021/08/23 00:44:29;;;;;;;5.33;4.47;;;15.10;99.90;;;;;;5090256;28;20620;-80
2021/08/23 00:46:57;;;;;;;5.20;4.70;;;15.10;99.90;;;;;;5075371;28;20617;-81
2021/08/23 00:49:24;;;;;;;4.20;3.87;;;15.10;99.90;;;;;;5073735;28;20617;-81
2021/08/23 00:51:53;;;;;;;4.73;4.30;;;15.10;99.90;;;;;;5074792;28;20656;-80
2021/08/23 00:54:21;;;;;;;5.30;4.83;;;15.10;99.90;;;;;;5069317;28;20610;-81
2021/08/23 00:56:48;;;;;;;7.53;4.57;;;15.00;99.90;;;;;;5069552;28;20628;-81
2021/08/23 00:59:15;;;;;;;4.27;3.97;;;15.10;99.90;;;;;;5081286;28;20612;-81
2021/08/23 01:01:54;;;;;;;5.20;4.70;;;15.00;99.90;;;;;;5082564;28;20616;-79
2021/08/23 01:04:33;;;;;;;5.90;4.57;;;15.00;99.90;;;;;;5069956;28;21025;-81
2021/08/23 01:07:04;;;;;;;4.63;4.23;;;15.00;99.90;;;;;;5075030;28;20624;-81
2021/08/23 01:09:36;;;;;;;6.20;5.70;;;15.00;99.90;;;;;;5069863;28;21023;-81
2021/08/23 01:12:07;;;;;;;4.50;4.00;;;15.00;99.90;;;;;;5085675;28;20753;-81
2021/08/23 01:14:37;;;;;;;4.13;3.83;;;14.90;99.90;;;;;;5089997;28;20711;-81
2021/08/23 01:17:05;;;;;;;4.77;4.27;;;14.90;99.90;;;;;;5085553;28;20679;-81
2021/08/23 01:19:35;;;;;;;6.43;4.80;;;14.90;99.90;;;;;;5074621;28;20652;-81
2021/08/23 01:22:06;;;;;;;4.90;4.50;;;14.90;99.90;;;;;;5079087;28;20925;-81
2021/08/23 01:24:39;;;;;;;4.80;4.40;;;14.90;99.90;;;;;;5078109;28;20722;-81
2021/08/23 01:27:11;;;;;;;6.63;4.80;;;14.90;99.90;;;;;;5078430;28;20636;-81
2021/08/23 01:29:48;;;;;;;4.43;4.10;;;14.90;99.90;;;;;;5082209;28;21055;-81
2021/08/23 01:32:19;;;;;;;4.50;4.00;;;14.90;99.90;;;;;;5078050;28;20726;-81
2021/08/23 01:34:49;;;;;;;4.00;3.30;;;14.80;99.90;;;;;;5084862;28;20629;-81
2021/08/23 01:37:19;;;;;;;4.17;3.77;;;14.90;99.90;;;;;;5073842;28;20629;-81
2021/08/23 01:39:48;;;;;;;4.30;3.90;;;15.00;99.90;;;;;;5069002;28;21399;-81
2021/08/23 01:42:17;;;;;;;7.70;3.90;;;15.00;99.90;;;;;;5073071;28;20621;-79
2021/08/23 01:44:45;;;;;;;7.90;4.00;;;15.00;99.90;;;;;;5081283;28;21009;-80
2021/08/23 01:47:13;;;;;;;4.33;3.93;;;14.90;99.90;;;;;;5073138;28;20620;-81
2021/08/23 01:49:44;;;;;;;5.70;3.70;;;15.00;99.90;;;;;;5077627;28;20970;-81
2021/08/23 01:52:12;;;;;;;4.50;3.77;;;15.00;99.90;;;;;;5092965;28;20770;-81
2021/08/23 01:54:41;;;;;;;4.77;4.30;;;14.90;99.90;;;;;;5089711;28;20655;-81
2021/08/23 01:57:10;;;;;;;3.87;3.37;;;14.90;99.90;;;;;;5072914;28;20724;-81
2021/08/23 01:59:39;;;;;;;4.67;4.27;;;14.90;99.90;;;;;;5084966;28;20723;-81
2021/08/23 02:02:08;;;;;;;4.60;3.43;;;14.90;99.90;;;;;;5086900;28;20644;-81
2021/08/23 02:04:38;;;;;;;4.70;4.10;;;14.90;99.90;;;;;;5092661;28;20629;-81
2021/08/23 02:07:09;;;;;;;3.90;3.47;;;14.90;99.90;;;;;;5093033;28;20621;-81
2021/08/23 02:09:37;;;;;;;5.47;5.00;;;14.90;99.90;;;;;;5092427;28;20965;-80
2021/08/23 02:12:06;;;;;;;4.10;3.40;;;14.90;99.90;;;;;;5088296;28;20657;-81
2021/08/23 02:14:35;;;;;;;4.40;4.00;;;14.90;99.90;;;;;;5088761;28;20985;-81
2021/08/23 02:17:03;;;;;;;4.27;3.90;;;14.90;99.90;;;;;;5077565;28;20632;-81
2021/08/23 02:19:31;;;;;;;3.70;3.40;;;14.90;99.90;;;;;;5072648;28;20637;-81
2021/08/23 02:21:58;;;;;;;4.50;4.10;;;14.90;99.90;;;;;;5088278;28;20731;-81
2021/08/23 02:24:31;;;;;;;4.20;3.73;;;14.90;99.90;;;;;;5092231;28;21338;-81
2021/08/23 02:27:00;;;;;;;3.80;3.50;;;14.90;99.90;;;;;;5072221;28;20728;-81
2021/08/23 02:29:28;;;;;;;4.23;3.83;;;14.90;99.90;;;;;;5073707;28;20614;-81
2021/08/23 02:31:56;;;;;;;3.73;3.43;;;14.90;99.90;;;;;;5084322;28;20668;-81
2021/08/23 02:34:25;;;;;;;3.77;3.33;;;14.90;99.90;;;;;;5088616;28;20636;-81
2021/08/23 02:36:52;;;;;;;4.50;4.10;;;14.90;99.90;;;;;;5083711;28;20624;-81
2021/08/23 02:39:21;;;;;;;5.07;4.00;;;14.90;99.90;;;;;;5091152;28;20636;-81
2021/08/23 02:41:53;;;;;;;3.80;3.50;;;15.00;99.90;;;;;;5091331;28;20962;-80
2021/08/23 02:44:21;;;;;;;4.37;3.87;;;15.00;99.90;;;;;;5085106;28;20657;-81
2021/08/23 02:46:51;;;;;;;5.57;3.40;;;15.00;99.90;;;;;;5071571;28;20617;-81
2021/08/23 02:49:19;;;;;;;4.20;3.80;;;14.90;99.90;;;;;;5066461;28;20658;-81
2021/08/23 02:51:48;;;;;;;5.03;4.50;;;14.90;99.90;;;;;;5082214;28;20675;-81
2021/08/23 02:54:18;;;;;;;3.60;3.30;;;14.90;99.90;;;;;;5070477;28;20633;-81
2021/08/23 02:56:49;;;;;;;4.00;3.70;;;14.80;99.90;;;;;;5091449;28;21180;-80
2021/08/23 02:59:21;;;;;;;3.57;3.27;;;14.80;99.90;;;;;;5085743;28;20637;-80
2021/08/23 03:01:49;;;;;;;3.80;3.43;;;14.70;99.90;;;;;;5071300;28;20633;-81
2021/08/23 03:04:18;;;;;;;4.40;3.40;;;14.70;99.90;;;;;;5076333;28;21204;-81
2021/08/23 03:06:46;;;;;;;3.73;3.33;;;14.80;99.90;;;;;;5080280;28;20730;-81
2021/08/23 03:09:13;;;;;;;4.00;3.60;;;14.80;99.90;;;;;;5090983;28;20706;-81
2021/08/23 03:11:41;;;;;;;6.23;4.50;;;14.80;99.90;;;;;;5084149;28;21011;-81
2021/08/23 03:14:10;;;;;;;5.43;3.87;;;14.90;99.90;;;;;;5071626;28;21229;-81
2021/08/23 03:16:37;;;;;;;5.40;3.70;;;14.90;99.90;;;;;;5088050;28;20624;-81
2021/08/23 03:19:05;;;;;;;4.20;3.80;;;14.80;99.90;;;;;;5089230;28;20636;-81
2021/08/23 03:21:32;;;;;;;4.07;3.77;;;15.00;99.90;;;;;;5082039;28;20617;-81
2021/08/23 03:23:59;;;;;;;3.80;3.47;;;15.00;99.90;;;;;;5079749;28;21140;-81
2021/08/23 03:26:26;;;;;;;4.10;3.80;;;15.00;99.90;;;;;;5077559;28;20621;-81
2021/08/23 03:28:53;;;;;;;4.40;3.60;;;15.00;99.90;;;;;;5090940;28;20654;-81
2021/08/23 03:31:21;;;;;;;4.47;3.80;;;15.00;99.90;;;;;;5091201;28;20704;-81
2021/08/23 03:33:48;;;;;;;3.93;3.60;;;15.00;99.90;;;;;;5072948;28;20634;-81
2021/08/23 03:36:22;;;;;;;4.60;3.73;;;15.00;99.90;;;;;;5083753;28;20613;-82
2021/08/23 03:38:49;;;;;;;4.40;3.40;;;15.00;99.90;;;;;;5086725;28;20613;-81
2021/08/23 03:41:16;;;;;;;4.93;3.77;;;15.00;99.90;;;;;;5070927;28;20618;-81
2021/08/23 03:43:43;;;;;;;4.13;3.73;;;15.00;99.90;;;;;;5088469;28;20617;-80
2021/08/23 03:46:10;;;;;;;3.80;3.40;;;15.00;99.90;;;;;;5079134;28;20621;-81
2021/08/23 03:48:39;;;;;;;3.80;3.50;;;15.00;99.90;;;;;;5079990;28;20612;-81
2021/08/23 03:51:06;;;;;;;4.20;3.33;;;15.00;99.90;;;;;;5069836;28;20621;-81
2021/08/23 03:53:33;;;;;;;7.03;5.27;;;14.90;99.90;;;;;;5069507;28;20710;-81
2021/08/23 03:56:00;;;;;;;4.13;3.63;;;15.00;99.90;;;;;;5068975;28;20678;-80
2021/08/23 03:58:27;;;;;;;4.23;3.57;;;15.00;99.90;;;;;;5075730;28;20628;-80
2021/08/23 04:00:53;;;;;;;4.47;3.20;;;15.00;99.90;;;;;;5074219;28;20639;-81
2021/08/23 04:03:20;;;;;;;4.37;3.97;;;15.10;99.90;;;;;;5071133;28;20613;-80
2021/08/23 04:05:48;;;;;;;3.60;3.17;;;15.10;99.90;;;;;;5076569;28;20649;-81
2021/08/23 04:08:15;;;;;;;5.67;3.80;;;15.00;99.90;;;;;;5086731;28;20685;-81
2021/08/23 04:10:42;;;;;;;5.07;3.23;;;15.00;99.90;;;;;;5086206;28;20656;-80
2021/08/23 04:13:09;;;;;;;5.30;4.80;;;15.00;99.90;;;;;;5080291;28;20749;-81
2021/08/23 04:15:36;;;;;;;4.27;3.50;;;15.00;99.90;;;;;;5083743;28;20707;-81
2021/08/23 04:18:03;;;;;;;3.43;3.10;;;14.90;99.90;;;;;;5071424;28;20632;-81
2021/08/23 04:20:30;;;;;;;5.47;4.00;;;15.00;99.90;;;;;;5069895;28;21159;-80
2021/08/23 04:22:58;;;;;;;3.73;3.33;;;15.00;99.90;;;;;;5081265;28;20657;-81
2021/08/23 04:25:25;;;;;;;3.87;3.57;;;15.00;99.90;;;;;;5085693;28;21036;-81
2021/08/23 04:27:52;;;;;;;3.40;3.10;;;15.00;99.90;;;;;;5090062;28;20596;-81
2021/08/23 04:30:19;;;;;;;4.83;3.40;;;14.90;99.90;;;;;;5074686;28;20645;-81
2021/08/23 04:32:46;;;;;;;3.77;3.40;;;14.90;99.90;;;;;;5070601;28;20755;-81
2021/08/23 04:35:12;;;;;;;4.07;3.40;;;14.90;99.90;;;;;;5076117;28;20652;-81
2021/08/23 04:37:39;;;;;;;4.20;3.80;;;14.80;99.90;;;;;;5084882;28;20660;-80
2021/08/23 04:40:09;;;;;;;7.30;3.63;;;14.90;99.90;;;;;;5077522;28;20629;-81
2021/08/23 04:42:36;;;;;;;4.33;2.70;;;14.90;99.90;;;;;;5074346;28;20716;-82
2021/08/23 04:45:03;;;;;;;3.37;3.13;;;14.90;99.90;;;;;;5072359;28;22449;-81
2021/08/23 04:47:30;;;;;;;3.63;3.33;;;14.90;99.90;;;;;;5073209;28;20605;-81
2021/08/23 04:49:57;;;;;;;4.40;3.27;;;14.90;99.90;;;;;;5070638;28;20692;-80
2021/08/23 04:52:25;;;;;;;3.70;3.40;;;14.90;99.90;;;;;;5074144;28;20653;-81
2021/08/23 04:54:52;;;;;;;3.83;2.97;;;14.90;99.90;;;;;;5077638;28;20639;-80
2021/08/23 04:57:20;;;;;;;5.97;3.53;;;14.90;99.90;;;;;;5084080;28;20653;-81
2021/08/23 04:59:47;;;;;;;4.47;3.60;;;14.90;99.90;;;;;;5086089;28;20605;-81
2021/08/23 05:02:14;;;;;;;3.47;3.17;;;14.90;99.90;;;;;;5072357;28;20622;-81
2021/08/23 05:04:41;;;;;;;4.00;3.70;;;14.90;99.90;;;;;;5084393;28;20609;-80
2021/08/23 05:07:08;;;;;;;7.50;3.60;;;14.90;99.90;;;;;;5069914;28;20732;-81
2021/08/23 05:09:35;;;;;;;4.20;3.90;;;14.90;99.90;;;;;;5080052;28;21282;-81
2021/08/23 05:12:02;;;;;;;4.00;3.60;;;14.90;99.90;;;;;;5079012;28;20672;-81
2021/08/23 05:14:30;;;;;;;4.17;3.70;;;14.90;99.90;;;;;;5075177;28;20722;-81
2021/08/23 05:16:57;;;;;;;3.30;3.10;;;15.00;99.90;;;;;;5074888;28;20696;-81
2021/08/23 05:19:24;;;;;;;9.30;3.83;;;15.00;99.90;;;;;;5073950;28;20736;-81
2021/08/23 05:21:51;;;;;;;5.13;3.50;;;15.00;99.90;;;;;;5073940;28;20687;-81
2021/08/23 05:24:18;;;;;;;4.20;3.80;;;15.00;99.90;;;;;;5076803;28;20625;-81
2021/08/23 05:26:44;;;;;;;4.00;3.70;;;15.10;99.90;;;;;;5083568;28;20707;-81
2021/08/23 05:29:11;;;;;;;4.10;3.80;;;15.10;99.90;;;;;;5077995;28;20656;-81
2021/08/23 05:31:40;;;;;;;6.30;4.13;;;15.10;99.90;;;;;;5087201;28;21700;-81
2021/08/23 05:34:07;;;;;;;5.13;3.77;;;15.10;99.90;;;;;;5081739;28;21249;-81
2021/08/23 05:36:34;;;;;;;6.50;3.50;;;15.10;99.90;;;;;;5081981;28;20668;-82
2021/08/23 05:39:00;;;;;;;3.70;3.40;;;15.10;99.90;;;;;;5084050;28;20629;-81
2021/08/23 05:41:27;;;;;;;3.67;3.37;;;15.20;99.90;;;;;;5087966;28;20680;-81
2021/08/23 05:43:54;;;;;;;4.13;3.77;;;15.20;99.90;;;;;;5086870;28;20618;-82
2021/08/23 05:46:22;;;;;;;3.90;3.50;;;15.30;99.90;;;;;;5076867;28;20655;-81
2021/08/23 05:48:50;;;;;;;3.90;3.57;;;15.20;99.90;;;;;;5092954;28;20674;-82
2021/08/23 05:51:18;;;;;;;3.70;3.40;;;15.20;99.90;;;;;;5089929;28;20646;-82
2021/08/23 05:53:46;;;;;;;5.10;4.63;;;15.30;99.90;;;;;;5091109;28;20660;-82
2021/08/23 05:56:13;;;;;;;5.03;3.60;;;15.40;99.90;;;;;;5091539;28;20615;-82
2021/08/23 05:58:40;;;;;;;4.43;3.47;;;15.40;99.90;;;;;;5082931;28;20647;-81
2021/08/23 06:01:07;;;;;;;3.83;3.53;;;15.40;99.90;;;;;;5091608;28;20678;-81
2021/08/23 06:03:34;;;;;;;3.30;3.00;;;15.40;99.90;;;;;;5073229;28;20691;-81
2021/08/23 06:06:05;;;;;;;3.60;3.30;;;15.40;99.90;;;;;;5074683;28;20642;-82
2021/08/23 06:08:33;;;;;;;4.97;4.23;;;15.40;99.90;;;;;;5067193;28;20671;-81
2021/08/23 06:11:03;;;;;;;4.10;3.80;;;15.50;99.90;;;;;;5072326;28;20619;-81
2021/08/23 06:13:31;;;;;;;6.33;3.83;;;15.50;99.90;;;;;;5086339;28;20980;-82
2021/08/23 06:15:59;;;;;;;4.33;3.93;;;15.60;99.90;;;;;;5093044;28;20710;-82
2021/08/23 06:18:25;;;;;;;4.53;4.07;;;15.70;99.90;;;;;;5075236;28;20634;-82
2021/08/23 06:20:53;;;;;;;4.93;3.80;;;15.70;99.90;;;;;;5086375;28;20674;-81
2021/08/23 06:23:21;;;;;;;5.97;3.50;;;15.70;99.90;;;;;;5082931;28;20633;-81
2021/08/23 06:25:48;;;;;;;6.53;4.40;;;15.70;99.90;;;;;;5083077;28;20660;-81
2021/08/23 06:28:15;;;;;;;4.43;4.03;;;15.80;99.90;;;;;;5087716;28;20622;-82
2021/08/23 06:30:42;;;;;;;3.93;3.40;;;15.80;99.90;;;;;;5075276;28;20636;-81
2021/08/23 06:33:09;;;;;;;5.50;3.13;;;15.90;99.90;;;;;;5088220;28;20662;-81
2021/08/23 06:35:36;;;;;;;4.37;3.40;;;15.90;99.90;;;;;;5077802;28;20684;-82
2021/08/23 06:38:03;;;;;;;8.20;3.33;;;16.10;99.90;;;;;;5070412;28;20684;-81
2021/08/23 06:40:32;;;;;;;4.67;3.53;;;16.20;99.90;;;;;;5089688;28;20606;-81
2021/08/23 06:42:58;;;;;;;3.90;3.43;;;16.20;99.90;;;;;;5101665;28;20613;-81
2021/08/23 06:45:25;;;;;;;5.40;3.60;;;16.20;99.90;;;;;;5090509;28;21153;-81
2021/08/23 06:47:52;;;;;;;5.00;3.50;;;16.30;99.90;;;;;;5092512;28;20790;-81
2021/08/23 06:50:19;;;;;;;3.40;3.10;;;16.30;99.90;;;;;;5089536;28;20608;-81
2021/08/23 06:52:46;;;;;;;3.23;2.87;;;16.30;99.90;;;;;;5091137;28;20656;-82
2021/08/23 06:55:13;;;;;;;4.53;4.13;;;16.30;99.90;;;;;;5092007;28;20624;-81
2021/08/23 06:57:41;;;;;;;5.40;2.87;;;16.20;99.90;;;;;;5091965;28;20682;-82
2021/08/23 07:00:09;;;;;;;3.50;3.20;;;16.20;99.90;;;;;;5091522;28;20624;-81
2021/08/23 07:02:36;;;;;;;4.00;3.30;;;16.40;99.90;;;;;;5091537;28;20663;-81
2021/08/23 07:05:04;;;;;;;3.70;3.40;;;16.40;99.90;;;;;;5091680;28;21053;-82
2021/08/23 07:07:32;;;;;;;3.40;3.10;;;16.50;99.90;;;;;;5091362;28;20622;-82
2021/08/23 07:09:59;;;;;;;4.50;4.10;;;16.50;99.90;;;;;;5072976;28;20959;-82
2021/08/23 07:12:26;;;;;;;3.97;3.57;;;16.70;99.90;;;;;;5090203;28;21016;-82
2021/08/23 07:14:55;;;;;;;10.63;3.10;;;16.60;99.90;;;;;;5092039;28;20620;-82
2021/08/23 07:17:22;;;;;;;7.23;3.30;;;16.70;99.90;;;;;;5091391;28;20633;-82
2021/08/23 07:19:48;;;;;;;6.73;3.57;;;16.80;99.90;;;;;;5091779;28;20647;-82
2021/08/23 07:22:18;;;;;;;3.23;2.93;;;16.70;99.90;;;;;;5091016;28;20623;-82
2021/08/23 07:24:45;;;;;;;5.30;4.07;;;16.70;99.90;;;;;;5091241;28;20631;-82
2021/08/23 07:27:13;;;;;;;3.93;3.30;;;16.60;99.90;;;;;;5085638;28;20652;-82
2021/08/23 07:29:40;;;;;;;3.53;3.23;;;16.60;99.90;;;;;;5091170;28;21105;-82
2021/08/23 07:32:08;;;;;;;3.70;3.40;;;16.70;99.90;;;;;;5090129;28;20677;-82
2021/08/23 07:34:36;;;;;;;4.57;3.77;;;16.80;99.90;;;;;;5089395;28;21223;-82
2021/08/23 07:37:03;;;;;;;5.10;3.43;;;16.90;99.90;;;;;;5071645;28;20618;-82
2021/08/23 07:39:30;;;;;;;3.33;2.90;;;17.00;99.90;;;;;;5069086;28;20625;-82
2021/08/23 07:41:58;;;;;;;5.80;4.23;;;17.00;99.90;;;;;;5082305;28;20618;-82
2021/08/23 07:44:24;;;;;;;4.83;3.63;;;17.10;99.90;;;;;;5090999;28;20961;-82
2021/08/23 07:46:51;;;;;;;4.47;3.97;;;17.20;99.90;;;;;;5091002;28;21218;-82
2021/08/23 07:49:20;;;;;;;4.23;3.77;;;17.30;99.90;;;;;;5091080;28;20611;-83
2021/08/23 07:51:47;;;;;;;4.30;3.10;;;17.40;99.90;;;;;;5090324;28;21336;-83
2021/08/23 07:54:16;;;;;;;6.80;3.60;;;17.40;99.90;;;;;;5090061;28;20655;-83
2021/08/23 07:56:43;;;;;;;3.30;3.10;;;17.40;99.90;;;;;;5090867;28;20666;-83
2021/08/23 07:59:10;;;;;;;5.33;4.03;;;17.30;99.90;;;;;;5079966;28;20633;-83
2021/08/23 08:01:37;;;;;;;3.77;3.47;;;17.50;99.90;;;;;;5070016;28;20628;-83
2021/08/23 08:04:05;;;;;;;4.20;3.30;;;17.50;99.90;;;;;;5088068;28;21200;-83
2021/08/23 08:06:33;;;;;;;3.23;2.97;;;17.50;99.90;;;;;;5089516;28;20628;-83
2021/08/23 08:09:00;;;;;;;4.70;3.90;;;17.40;99.90;;;;;;5084992;28;20651;-83
2021/08/23 08:11:27;;;;;;;3.40;3.10;;;17.30;99.90;;;;;;5090313;28;20678;-83
2021/08/23 08:13:54;;;;;;;3.60;3.30;;;17.40;99.90;;;;;;5090072;28;20717;-83
2021/08/23 08:16:21;;;;;;;3.73;3.43;;;17.50;99.90;;;;;;5090601;28;20624;-83
2021/08/23 08:18:48;;;;;;;5.03;3.40;;;17.40;99.90;;;;;;5090182;28;20639;-84
2021/08/23 08:21:15;;;;;;;4.63;3.90;;;17.40;99.90;;;;;;5089548;28;20624;-83
2021/08/23 08:23:43;;;;;;;3.60;3.20;;;17.50;99.90;;;;;;5090055;28;20628;-83
2021/08/23 08:26:10;;;;;;;3.87;3.27;;;17.50;99.90;;;;;;5090507;28;20669;-83
2021/08/23 08:28:37;;;;;;;4.57;3.80;;;17.60;99.90;;;;;;5090767;28;20619;-83
2021/08/23 08:31:04;;;;;;;4.23;3.30;;;17.80;99.90;;;;;;5089829;28;20652;-82
2021/08/23 08:33:31;;;;;;;3.40;3.10;;;17.90;99.90;;;;;;5089987;28;20640;-82
2021/08/23 08:35:59;;;;;;;3.53;3.20;;;17.80;99.90;;;;;;5090009;28;21305;-83
2021/08/23 08:38:26;;;;;;;4.23;3.17;;;18.00;99.90;;;;;;5090028;28;21172;-83
2021/08/23 08:40:59;;;;;;;3.30;3.03;;;17.80;99.90;;;;;;5089392;28;20605;-83
2021/08/23 08:43:26;;;;;;;4.17;3.53;;;17.80;99.90;;;;;;5089664;28;20630;-82
2021/08/23 08:45:54;;;;;;;4.13;3.67;;;17.70;99.90;;;;;;5089913;28;20681;-83
2021/08/23 08:48:21;;;;;;;4.50;3.03;;;17.80;99.90;;;;;;5089487;28;20617;-83
2021/08/23 08:50:50;;;;;;;5.97;3.90;;;17.80;99.90;;;;;;5090221;28;20611;-83
2021/08/23 08:53:18;;;;;;;4.63;3.13;;;17.60;99.90;;;;;;5089763;28;20640;-83
2021/08/23 08:55:45;;;;;;;3.90;3.23;;;17.50;99.90;;;;;;5090293;28;20609;-83
2021/08/23 08:58:13;;;;;;;3.73;3.13;;;17.50;99.90;;;;;;5089648;28;20613;-83
2021/08/23 09:00:41;;;;;;;4.60;4.20;;;17.40;99.90;;;;;;5089403;28;20681;-83
2021/08/23 09:03:10;;;;;;;4.90;3.80;;;17.50;99.90;;;;;;5089009;28;20605;-83
2021/08/23 09:05:38;;;;;;;3.97;3.67;;;17.60;99.90;;;;;;5090343;28;20608;-83
2021/08/23 09:08:06;;;;;;;3.67;3.13;;;17.50;99.90;;;;;;5089628;28;20617;-83
2021/08/23 09:10:38;;;;;;;4.13;3.33;;;17.50;99.90;;;;;;5089609;28;20711;-83
2021/08/23 09:13:07;;;;;;;3.57;3.27;;;17.60;99.90;;;;;;5088881;28;20623;-83
2021/08/23 09:15:37;;;;;;;5.70;3.37;;;17.60;99.90;;;;;;5089510;28;20676;-83
2021/08/23 09:18:06;;;;;;;4.00;3.63;;;17.70;99.90;;;;;;5089778;28;20616;-83
2021/08/23 09:20:34;;;;;;;4.70;3.67;;;17.50;99.90;;;;;;5089748;28;21184;-82
2021/08/23 09:23:12;;;;;;;3.40;3.20;;;17.40;99.90;;;;;;5087860;28;20970;-83
2021/08/23 09:25:41;;;;;;;3.40;3.10;;;17.40;99.90;;;;;;5089510;28;20606;-83
2021/08/23 09:28:09;;;;;;;3.37;3.00;;;17.60;99.90;;;;;;5089615;28;20619;-83
2021/08/23 09:30:38;;;;;;;3.30;2.90;;;17.70;99.90;;;;;;5089695;28;20648;-83
2021/08/23 09:33:07;;;;;;;4.10;3.77;;;17.70;99.90;;;;;;5089127;28;20675;-83
2021/08/23 09:35:36;;;;;;;3.80;3.50;;;17.50;99.90;;;;;;5079905;28;21138;-83
2021/08/23 09:38:07;;;;;;;4.27;3.87;;;17.40;99.90;;;;;;5069427;28;21398;-83
2021/08/23 09:40:34;;;;;;;4.27;3.70;;;17.50;99.90;;;;;;5068159;28;20682;-83
2021/08/23 09:43:08;;;;;;;4.33;3.70;;;17.50;99.90;;;;;;5068735;28;21045;-83
2021/08/23 09:45:35;;;;;;;4.17;3.77;;;17.70;99.90;;;;;;5069019;28;20664;-83
2021/08/23 09:48:05;;;;;;;4.30;3.90;;;17.90;99.90;;;;;;5088163;28;20653;-83
2021/08/23 09:50:42;;;;;;;4.20;3.83;;;17.90;99.90;;;;;;5083667;28;20644;-83
2021/08/23 09:53:11;;;;;;;4.43;3.20;;;18.00;99.90;;;;;;5093378;28;20605;-83
2021/08/23 09:55:40;;;;;;;3.30;3.00;;;18.20;99.90;;;;;;5110291;28;20604;-83
2021/08/23 09:58:09;;;;;;;3.90;3.60;;;18.40;99.90;;;;;;5111288;28;20612;-83
2021/08/23 10:00:37;;;;;;;4.30;3.40;;;18.40;99.90;;;;;;5092101;28;20621;-83
2021/08/23 10:03:13;;;;;;;4.67;3.07;;;18.30;99.90;;;;;;5087641;28;20656;-83
2021/08/23 10:05:44;;;;;;;4.10;3.43;;;18.40;99.90;;;;;;5092293;28;20627;-83
2021/08/23 10:08:13;;;;;;;4.07;3.67;;;18.30;99.90;;;;;;5092735;28;20627;-83
2021/08/23 10:10:41;;;;;;;3.57;3.23;;;18.30;99.90;;;;;;5092747;28;21208;-83
2021/08/23 10:13:08;;;;;;;4.60;3.47;;;18.20;99.90;;;;;;5090965;28;21027;-83
2021/08/23 10:15:37;;;;;;;3.77;3.57;;;18.30;99.90;;;;;;5092746;28;20758;-83
2021/08/23 10:18:08;;;;;;;4.67;4.17;;;18.50;99.90;;;;;;5092847;28;20632;-84
2021/08/23 10:20:35;;;;;;;4.80;3.40;;;18.70;99.90;;;;;;5093122;28;20611;-84
2021/08/23 10:23:03;;;;;;;2.93;2.73;;;18.80;99.90;;;;;;5092255;28;20612;-83
2021/08/23 10:25:31;;;;;;;3.47;3.20;;;18.90;99.90;;;;;;5092322;28;20705;-83
2021/08/23 10:28:06;;;;;;;3.73;3.53;;;19.00;99.90;;;;;;5092902;28;21004;-84
2021/08/23 10:30:34;;;;;;;6.90;3.70;;;19.00;99.90;;;;;;5092088;28;20636;-83
2021/08/23 10:33:12;;;;;;;3.53;3.23;;;19.00;99.90;;;;;;5092208;28;20612;-83
2021/08/23 10:35:48;;;;;;;5.30;4.77;;;18.80;99.90;;;;;;5082133;28;20667;-82
2021/08/23 10:38:17;;;;;;;4.83;4.43;;;18.50;99.90;;;;;;5092106;28;21258;-83
2021/08/23 10:40:45;;;;;;;4.13;3.73;;;18.40;99.90;;;;;;5090663;28;21241;-82
2021/08/23 10:43:18;;;;;;;5.40;4.30;;;18.30;99.90;;;;;;5092291;28;20981;-83
2021/08/23 10:45:46;;;;;;;5.37;4.60;;;18.50;99.90;;;;;;5091924;28;21153;-83
2021/08/23 10:48:16;;;;;;;5.80;4.47;;;18.60;99.90;;;;;;5092445;28;20681;-83
2021/08/23 10:50:43;;;;;;;8.10;4.27;;;18.80;99.90;;;;;;5092039;28;20621;-83
2021/08/23 10:53:15;;;;;;;6.40;4.47;;;18.70;99.90;;;;;;5086827;28;20691;-83
2021/08/23 10:55:42;;;;;;;5.10;4.10;;;18.60;99.90;;;;;;5091441;28;20652;-82
2021/08/23 10:58:11;;;;;;;4.80;4.33;;;18.60;99.90;;;;;;5089622;28;20609;-83
2021/08/23 11:00:40;;;;;;;5.17;4.67;;;18.50;99.90;;;;;;5080839;28;20616;-82
2021/08/23 11:03:07;;;;;;;4.73;4.03;;;18.30;99.90;;;;;;5079758;28;20671;-82
2021/08/23 11:05:37;;;;;;;4.57;4.20;;;18.10;99.90;;;;;;5071148;28;20621;-82
2021/08/23 11:08:09;;;;;;;4.60;4.20;;;18.00;99.90;;;;;;5084281;28;21498;-82
2021/08/23 11:10:39;;;;;;;4.93;4.63;;;18.00;99.90;;;;;;5091897;28;20740;-82
2021/08/23 11:13:15;;;;;;;4.93;4.30;;;18.10;99.90;;;;;;5089534;28;20609;-81
2021/08/23 11:15:42;;;;;;;5.80;4.60;;;18.20;99.90;;;;;;5089935;28;20867;-81
2021/08/23 11:18:11;;;;;;;5.10;4.60;;;18.30;99.90;;;;;;5090394;28;21193;-82
2021/08/23 11:20:41;;;;;;;5.10;4.30;;;18.70;99.90;;;;;;5091837;28;20616;-83
2021/08/23 11:23:10;;;;;;;5.63;4.53;;;19.40;99.90;;;;;;5088165;28;21239;-83
2021/08/23 11:25:41;;;;;;;4.40;4.00;;;19.80;99.90;;;;;;5087470;28;20608;-83
2021/08/23 11:28:10;;;;;;;3.53;3.23;;;19.90;99.90;;;;;;5091375;28;20613;-82
2021/08/23 11:30:39;;;;;;;3.90;3.60;;;19.60;99.90;;;;;;5090712;28;20666;-82
2021/08/23 11:33:08;;;;;;;5.27;3.30;;;19.40;99.90;;;;;;5090842;28;21051;-82
2021/08/23 11:35:39;;;;;;;3.97;3.63;;;19.40;99.90;;;;;;5090780;28;20676;-82
2021/08/23 11:38:08;;;;;;;4.57;3.20;;;19.20;99.90;;;;;;5091234;28;20612;-82
2021/08/23 11:40:37;;;;;;;4.40;3.40;;;18.90;99.90;;;;;;5090741;28;20709;-82
2021/08/23 11:43:06;;;;;;;3.80;3.50;;;18.90;99.90;;;;;;5082996;28;21054;-82
2021/08/23 11:45:35;;;;;;;6.93;3.53;;;19.00;99.90;;;;;;5090391;28;21169;-82
2021/08/23 11:48:03;;;;;;;6.13;3.13;;;19.00;99.90;;;;;;5091341;28;20617;-82
2021/08/23 11:50:30;;;;;;;4.60;3.17;;;19.00;99.90;;;;;;5091105;28;20662;-82
2021/08/23 11:53:04;;;;;;;3.83;2.83;;;19.20;99.90;;;;;;5089965;28;20685;-82
2021/08/23 11:55:33;;;;;;;4.80;2.97;;;19.70;99.90;;;;;;5091154;28;20998;-82
2021/08/23 11:58:02;;;;;;;3.17;2.97;;;20.40;99.90;;;;;;5089727;28;20668;-82
2021/08/23 12:00:30;;;;;;;3.03;2.37;;;20.50;99.90;;;;;;5090949;28;20610;-83
2021/08/23 12:03:05;;;;;;;4.13;3.10;;;21.00;99.80;;;;;;5090276;28;20620;-82
2021/08/23 12:05:37;;;;;;;2.30;2.20;;;21.40;99.10;;;;;;5090676;28;20608;-83
2021/08/23 12:08:07;;;;;;;2.10;2.00;;;20.80;98.90;;;;;;5089966;28;21025;-83
2021/08/23 12:10:36;;;;;;;3.13;2.90;;;20.50;98.80;;;;;;5083142;28;20650;-82
2021/08/23 12:13:09;;;;;;;2.80;2.60;;;20.30;99.40;;;;;;5089908;28;20612;-82
2021/08/23 12:15:37;;;;;;;3.23;2.50;;;21.40;99.90;;;;;;5090499;28;20659;-82
2021/08/23 12:18:12;;;;;;;2.90;2.30;;;22.10;97.00;;;;;;5089924;28;20694;-82
2021/08/23 12:20:39;;;;;;;2.30;2.10;;;21.80;97.50;;;;;;5090123;28;20616;-82
2021/08/23 12:23:08;;;;;;;3.43;2.50;;;21.60;97.90;;;;;;5089595;28;20604;-82
2021/08/23 12:25:35;;;;;;;2.47;2.27;;;21.40;98.90;;;;;;5090362;28;20623;-82
2021/08/23 12:28:02;;;;;;;2.57;2.47;;;22.50;97.50;;;;;;5090310;28;21043;-82
2021/08/23 12:30:31;;;;;;;2.57;2.37;;;22.80;97.80;;;;;;5090332;28;20674;-82
2021/08/23 12:32:58;;;;;;;2.60;1.97;;;23.30;94.70;;;;;;5089265;28;21133;-82
2021/08/23 12:35:27;;;;;;;1.90;1.80;;;23.80;95.30;;;;;;5088942;28;20672;-82
2021/08/23 12:37:54;;;;;;;4.53;2.23;;;22.90;93.90;;;;;;5090109;28;21232;-82
2021/08/23 12:40:23;;;;;;;2.33;2.23;;;22.50;97.00;;;;;;5089934;28;20648;-82
2021/08/23 12:42:57;;;;;;;1.93;1.80;;;23.50;94.60;;;;;;5088907;28;20621;-81
2021/08/23 12:45:24;;;;;;;1.93;1.83;;;24.40;94.10;;;;;;5082589;28;21283;-80
2021/08/23 12:47:52;;;;;;;2.13;1.73;;;25.90;91.70;;;;;;5089111;28;20694;-80
2021/08/23 12:50:20;;;;;;;2.50;1.80;;;25.40;91.00;;;;;;5090290;28;21153;-79
2021/08/23 12:52:47;;;;;;;1.60;1.50;;;25.20;91.70;;;;;;5089531;28;20608;-78